Terminal Aerodrome Forecast
Issued by NWS Milwaukee/Sullivan, WI

Home | Current Version | Previous Version | Text Only | Print | Product List | Glossary On
Versions: 1 2 3 4 5 6 7 8 9 10 11 12 13 14 15 16 17 18 19 20 21 22 23 24 25
000
FTUS43 KMKX 250853 AAA
TAFMKE
TAF AMD
KMKE 250853Z 2509/2612 VRB03KT P6SM SCT090
     FM251500 11004KT P6SM BKN200
     FM251900 12008KT P6SM BKN090
     FM252100 12007KT P6SM VCTS BKN050CB
      TEMPO 2521/2523 3SM TSRA BKN035CB
     FM260200 16005KT 5SM BR VCTS OVC060CB
     FM260900 19006KT 3SM BR BKN045=

USA.gov is the U.S. government's official web portal to all federal, state and local government web resources and services.